createdAt,value
2023-04-09T00:02:10.716Z,9.70
2023-04-09T00:04:42.291Z,8.48
2023-04-09T00:07:13.839Z,9.18
2023-04-09T00:09:45.323Z,9.00
2023-04-09T00:12:16.831Z,9.13
2023-04-09T00:14:48.354Z,9.00
2023-04-09T00:17:19.914Z,8.38
2023-04-09T00:19:51.455Z,9.43
2023-04-09T00:22:22.941Z,7.93
2023-04-09T00:24:54.416Z,8.67
2023-04-09T00:27:25.898Z,9.10
2023-04-09T00:29:57.386Z,9.27
2023-04-09T00:32:28.858Z,9.03
2023-04-09T00:35:00.410Z,9.00
2023-04-09T00:37:31.901Z,8.27
2023-04-09T00:40:04.171Z,8.70
2023-04-09T00:42:37.499Z,8.57
2023-04-09T00:45:09.369Z,8.90
2023-04-09T00:47:43.077Z,8.85
2023-04-09T00:50:14.686Z,9.52
2023-04-09T00:52:46.256Z,9.48
2023-04-09T00:55:18.820Z,9.02
2023-04-09T00:57:50.299Z,9.38
2023-04-09T01:00:21.971Z,9.50
2023-04-09T01:02:55.813Z,9.23
2023-04-09T01:05:34.508Z,9.75
2023-04-09T01:08:52.166Z,9.30
2023-04-09T01:11:38.862Z,9.23
2023-04-09T01:14:35.483Z,9.90
2023-04-09T01:17:17.551Z,9.75
2023-04-09T01:20:01.749Z,9.05
2023-04-09T01:22:51.396Z,10.32
2023-04-09T01:25:53.460Z,11.57
2023-04-09T01:28:33.587Z,9.80
2023-04-09T01:31:11.827Z,10.65
2023-04-09T01:33:44.770Z,11.40
2023-04-09T01:36:17.229Z,11.43
2023-04-09T01:38:51.320Z,12.10
2023-04-09T01:41:24.960Z,11.70
2023-04-09T01:43:57.580Z,12.10
2023-04-09T01:46:30.099Z,10.80
2023-04-09T01:49:02.798Z,12.02
2023-04-09T01:51:34.880Z,12.02
2023-04-09T01:54:06.420Z,11.68
2023-04-09T01:56:46.337Z,12.00
2023-04-09T01:59:17.893Z,11.15
2023-04-09T02:02:01.303Z,11.05
2023-04-09T02:04:34.337Z,12.07
2023-04-09T02:07:27.561Z,11.35
2023-04-09T02:10:00.886Z,11.32
2023-04-09T02:12:36.339Z,11.13
2023-04-09T02:15:08.413Z,10.52
2023-04-09T02:17:40.081Z,10.95
2023-04-09T02:20:12.104Z,11.18
2023-04-09T02:22:43.622Z,11.27
2023-04-09T02:25:15.584Z,11.23
2023-04-09T02:27:47.132Z,11.90
2023-04-09T02:30:18.575Z,11.70
2023-04-09T02:32:50.159Z,10.85
2023-04-09T02:35:21.731Z,12.25
2023-04-09T02:37:53.172Z,11.47
2023-04-09T02:40:24.687Z,11.90
2023-04-09T02:42:56.208Z,11.63
2023-04-09T02:45:27.676Z,10.03
2023-04-09T02:47:59.192Z,11.97
2023-04-09T02:50:30.754Z,10.93
2023-04-09T02:53:02.317Z,10.30
2023-04-09T02:55:33.856Z,10.13
2023-04-09T02:58:05.597Z,10.85
2023-04-09T03:00:37.068Z,10.48
2023-04-09T03:03:08.873Z,10.07
2023-04-09T03:05:40.520Z,10.48
2023-04-09T03:08:12.060Z,10.07
2023-04-09T03:10:43.566Z,11.10
2023-04-09T03:13:15.388Z,10.23
2023-04-09T03:15:51.902Z,10.75
2023-04-09T03:18:23.486Z,9.73
2023-04-09T03:20:54.933Z,10.10
2023-04-09T03:23:26.481Z,10.00
2023-04-09T03:26:05.359Z,9.03
2023-04-09T03:28:36.923Z,8.80
2023-04-09T03:31:08.416Z,8.13
2023-04-09T03:33:40.152Z,8.23
2023-04-09T03:36:11.634Z,8.73
2023-04-09T03:38:43.126Z,8.67
2023-04-09T03:41:14.585Z,9.20
2023-04-09T03:43:46.035Z,8.17
2023-04-09T03:46:18.162Z,8.73
2023-04-09T03:48:49.990Z,8.35
2023-04-09T03:51:21.685Z,8.57
2023-04-09T03:53:53.171Z,8.73
2023-04-09T03:56:24.601Z,7.67
2023-04-09T03:58:56.074Z,8.13
2023-04-09T04:01:27.488Z,7.20
2023-04-09T04:03:59.068Z,7.70
2023-04-09T04:06:33.578Z,7.72
2023-04-09T04:09:05.192Z,7.20
2023-04-09T04:11:36.728Z,7.45
2023-04-09T04:14:08.247Z,7.53
2023-04-09T04:16:42.576Z,6.77
2023-04-09T04:19:14.163Z,7.15
2023-04-09T04:21:45.646Z,7.43
2023-04-09T04:24:17.169Z,7.53
2023-04-09T04:26:48.635Z,6.93
2023-04-09T04:29:20.150Z,7.60
2023-04-09T04:31:51.609Z,7.30
2023-04-09T04:34:23.195Z,7.10
2023-04-09T04:36:54.673Z,6.82
2023-04-09T04:39:26.285Z,7.03
2023-04-09T04:41:57.737Z,7.63
2023-04-09T04:44:29.459Z,7.05
2023-04-09T04:47:00.972Z,7.68
2023-04-09T04:49:32.482Z,7.53
2023-04-09T04:52:04.002Z,7.67
2023-04-09T04:54:35.556Z,6.83
2023-04-09T04:57:07.026Z,6.47
2023-04-09T04:59:39.949Z,6.93
2023-04-09T05:02:11.817Z,6.85
2023-04-09T05:04:43.395Z,7.15
2023-04-09T05:07:14.842Z,6.37
2023-04-09T05:09:46.337Z,7.85
2023-04-09T05:12:18.072Z,6.87
2023-04-09T05:14:49.648Z,8.00
2023-04-09T05:17:21.091Z,8.00
2023-04-09T05:19:53.590Z,7.50
2023-04-09T05:22:25.084Z,7.88
2023-04-09T05:24:56.546Z,7.70
2023-04-09T05:27:28.897Z,7.43
2023-04-09T05:32:32.721Z,6.75
2023-04-09T05:35:04.738Z,7.10
2023-04-09T05:37:36.215Z,7.47
2023-04-09T05:40:08.274Z,9.97
2023-04-09T05:42:39.736Z,9.20
2023-04-09T05:45:11.442Z,21.95
2023-04-09T05:47:42.965Z,20.58
2023-04-09T05:50:14.487Z,10.60
2023-04-09T05:52:46.054Z,8.63
2023-04-09T05:55:17.513Z,8.93
2023-04-09T05:57:49.105Z,8.80
2023-04-09T06:00:21.683Z,8.55
2023-04-09T06:02:53.227Z,8.20
2023-04-09T06:05:24.780Z,7.63
2023-04-09T06:07:56.473Z,7.67
2023-04-09T06:10:27.997Z,8.45
2023-04-09T06:12:59.562Z,8.10
2023-04-09T06:15:31.354Z,9.33
2023-04-09T06:18:03.210Z,7.47
2023-04-09T06:20:34.743Z,7.93
2023-04-09T06:23:06.284Z,9.23
2023-04-09T06:25:37.803Z,9.38
2023-04-09T06:28:09.271Z,8.70
2023-04-09T06:30:41.321Z,8.27
2023-04-09T06:33:12.931Z,8.30
2023-04-09T06:35:44.432Z,8.50
2023-04-09T06:38:16.645Z,8.50
2023-04-09T06:40:48.184Z,8.77
2023-04-09T06:43:19.704Z,9.43
2023-04-09T06:45:51.404Z,8.70
2023-04-09T06:48:22.988Z,8.55
2023-04-09T06:50:54.570Z,9.38
2023-04-09T06:53:26.186Z,8.63
2023-04-09T06:55:57.699Z,8.20
2023-04-09T06:58:29.141Z,8.20
2023-04-09T07:01:01.035Z,8.93
2023-04-09T07:03:32.806Z,8.18
2023-04-09T07:06:04.498Z,8.65
2023-04-09T07:08:36.224Z,7.80
2023-04-09T07:11:07.812Z,8.20
2023-04-09T07:13:39.349Z,8.65
2023-04-09T07:16:10.957Z,7.97
2023-04-09T07:18:42.567Z,7.97
2023-04-09T07:21:14.103Z,8.10
2023-04-09T07:23:45.821Z,7.70
2023-04-09T07:26:17.457Z,6.70
2023-04-09T07:28:48.955Z,6.80
2023-04-09T07:31:20.475Z,5.75
2023-04-09T07:33:52.135Z,7.03
2023-04-09T07:36:23.898Z,8.00
2023-04-09T07:38:55.722Z,6.78
2023-04-09T07:41:27.258Z,6.40
2023-04-09T07:43:59.277Z,5.78
2023-04-09T07:46:30.813Z,6.55
2023-04-09T07:49:02.352Z,6.00
2023-04-09T07:51:33.813Z,6.33
2023-04-09T07:54:05.811Z,6.00
2023-04-09T07:56:37.348Z,6.57
2023-04-09T07:59:08.906Z,6.43
2023-04-09T08:01:40.558Z,5.35
2023-04-09T08:04:13.798Z,5.70
2023-04-09T08:06:51.071Z,6.13
2023-04-09T08:09:23.346Z,5.18
2023-04-09T08:11:54.866Z,5.82
2023-04-09T08:14:26.401Z,5.90
2023-04-09T08:16:57.831Z,6.00
2023-04-09T08:19:29.342Z,6.07
2023-04-09T08:22:01.505Z,4.88
2023-04-09T08:24:33.069Z,5.95
2023-04-09T08:27:04.577Z,6.13
2023-04-09T08:29:36.051Z,6.00
2023-04-09T08:32:08.109Z,5.00
2023-04-09T08:34:39.701Z,6.05
2023-04-09T08:37:11.261Z,4.90
2023-04-09T08:39:42.757Z,4.93
2023-04-09T08:42:15.143Z,4.83
2023-04-09T08:47:20.576Z,5.18
2023-04-09T08:49:52.227Z,5.20
2023-04-09T08:52:33.265Z,5.90
2023-04-09T08:55:05.281Z,5.63
2023-04-09T08:57:39.759Z,5.70
2023-04-09T09:00:12.293Z,4.97
2023-04-09T09:03:03.402Z,5.60
2023-04-09T09:05:45.854Z,5.90
2023-04-09T09:08:26.755Z,6.18
2023-04-09T09:10:58.536Z,5.90
2023-04-09T09:13:30.237Z,6.05
2023-04-09T09:16:16.134Z,5.43
2023-04-09T09:18:48.283Z,5.45
2023-04-09T09:21:19.849Z,6.10
2023-04-09T09:23:51.374Z,6.75
2023-04-09T09:26:28.793Z,5.85
2023-04-09T09:29:04.143Z,5.65
2023-04-09T09:31:49.128Z,6.15
2023-04-09T09:34:22.503Z,5.47
2023-04-09T09:36:54.288Z,5.70
2023-04-09T09:39:44.293Z,5.38
2023-04-09T09:42:16.097Z,6.60
2023-04-09T09:44:48.351Z,5.55
2023-04-09T09:47:21.526Z,6.50
2023-04-09T09:49:53.160Z,6.00
2023-04-09T09:52:26.975Z,6.15
2023-04-09T09:55:05.285Z,5.70
2023-04-09T09:57:40.634Z,6.53
2023-04-09T10:00:14.117Z,6.95
2023-04-09T10:02:59.223Z,6.40
2023-04-09T10:05:31.474Z,6.65
2023-04-09T10:08:04.548Z,6.55
2023-04-09T10:10:38.191Z,6.47
2023-04-09T10:13:16.107Z,6.65
2023-04-09T10:15:48.762Z,14.27
2023-04-09T10:18:21.359Z,8.40
2023-04-09T10:20:58.780Z,7.72
2023-04-09T10:23:39.660Z,6.97
2023-04-09T10:26:11.666Z,5.68
2023-04-09T10:28:43.412Z,7.00
2023-04-09T10:31:15.070Z,7.32
2023-04-09T10:33:46.761Z,7.07
2023-04-09T10:36:19.257Z,7.55
2023-04-09T10:38:51.590Z,6.93
2023-04-09T10:41:27.908Z,6.63
2023-04-09T10:43:59.579Z,13.90
2023-04-09T10:46:36.314Z,32.28
2023-04-09T10:49:18.506Z,11.68
2023-04-09T10:52:12.028Z,11.52
2023-04-09T10:54:46.217Z,8.73
2023-04-09T10:57:22.254Z,29.55
2023-04-09T10:59:55.871Z,59.65
2023-04-09T11:02:39.971Z,18.38
2023-04-09T11:05:18.222Z,41.85
2023-04-09T11:07:57.450Z,18.77
2023-04-09T11:10:29.292Z,11.50
2023-04-09T11:13:01.379Z,12.18
2023-04-09T11:15:36.856Z,8.43
2023-04-09T11:18:09.878Z,7.75
2023-04-09T11:20:41.907Z,6.53
2023-04-09T11:23:14.210Z,5.57
2023-04-09T11:28:21.018Z,6.22
2023-04-09T11:30:53.220Z,6.82
2023-04-09T11:36:05.757Z,6.90
2023-04-09T11:38:38.941Z,6.90
2023-04-09T11:41:13.510Z,6.22
2023-04-09T11:43:45.357Z,7.35
2023-04-09T11:46:17.353Z,6.80
2023-04-09T11:48:49.025Z,7.22
2023-04-09T11:51:21.175Z,6.82
2023-04-09T11:53:52.914Z,8.10
2023-04-09T11:56:25.307Z,6.82
2023-04-09T11:58:57.282Z,6.70
2023-04-09T12:01:34.934Z,7.25
2023-04-09T12:04:07.919Z,6.90
2023-04-09T12:06:42.981Z,7.97
2023-04-09T12:09:14.838Z,7.22
2023-04-09T12:11:46.638Z,7.30
2023-04-09T12:14:21.462Z,8.07
2023-04-09T12:16:53.123Z,8.30
2023-04-09T12:19:28.177Z,7.90
2023-04-09T12:21:59.673Z,7.85
2023-04-09T12:24:31.222Z,7.40
2023-04-09T12:27:02.928Z,8.18
2023-04-09T12:29:34.880Z,7.15
2023-04-09T12:32:06.496Z,8.10
2023-04-09T12:34:38.070Z,8.57
2023-04-09T12:37:09.739Z,8.45
2023-04-09T12:39:41.678Z,8.20
2023-04-09T12:42:13.198Z,7.97
2023-04-09T12:44:44.759Z,8.60
2023-04-09T12:47:16.355Z,8.25
2023-04-09T12:49:50.045Z,7.95
2023-04-09T12:52:22.556Z,7.68
2023-04-09T12:54:54.050Z,8.20
2023-04-09T12:57:25.757Z,8.60
2023-04-09T12:59:57.672Z,8.95
2023-04-09T13:02:30.062Z,8.27
2023-04-09T13:05:02.465Z,7.78
2023-04-09T13:10:06.107Z,7.18
2023-04-09T13:15:09.447Z,8.63
2023-04-09T13:17:41.059Z,7.43
2023-04-09T13:20:12.792Z,7.10
2023-04-09T13:22:48.733Z,7.05
2023-04-09T13:25:20.436Z,7.43
2023-04-09T13:27:52.109Z,7.03
2023-04-09T13:30:23.604Z,6.72
2023-04-09T13:32:55.404Z,6.90
2023-04-09T13:35:27.182Z,6.80
2023-04-09T13:37:58.726Z,6.78
2023-04-09T13:40:30.399Z,7.38
2023-04-09T13:43:02.089Z,7.60
2023-04-09T13:45:33.673Z,7.65
2023-04-09T13:48:07.024Z,7.90
2023-04-09T13:50:38.635Z,7.80
2023-04-09T13:53:10.135Z,9.10
2023-04-09T13:55:41.641Z,7.78
2023-04-09T13:58:13.174Z,7.78
2023-04-09T14:00:44.725Z,8.35
2023-04-09T14:03:16.508Z,8.35
2023-04-09T14:05:49.122Z,6.75
2023-04-09T14:10:54.502Z,7.40
2023-04-09T14:13:26.056Z,7.43
2023-04-09T14:15:59.922Z,7.13
2023-04-09T14:21:03.416Z,6.50
2023-04-09T14:26:06.988Z,7.55
2023-04-09T14:28:38.464Z,7.18
2023-04-09T14:31:10.044Z,5.70
2023-04-09T14:33:41.662Z,5.82
2023-04-09T14:36:13.269Z,6.45
2023-04-09T14:38:44.853Z,7.03
2023-04-09T14:41:16.897Z,5.75
2023-04-09T14:43:48.390Z,6.50
2023-04-09T14:46:20.311Z,6.32
2023-04-09T14:51:23.715Z,6.30
2023-04-09T14:53:55.280Z,7.10
2023-04-09T14:56:27.108Z,6.13
2023-04-09T14:58:58.636Z,6.30
2023-04-09T15:01:32.536Z,7.35
2023-04-09T15:04:04.671Z,6.72
2023-04-09T15:06:36.310Z,6.00
2023-04-09T15:09:07.941Z,6.53
2023-04-09T15:11:40.025Z,5.95
2023-04-09T15:14:11.558Z,5.15
2023-04-09T15:16:43.153Z,5.10
2023-04-09T15:19:14.702Z,3.35
2023-04-09T15:21:46.266Z,3.88
2023-04-09T15:24:17.741Z,4.13
2023-04-09T15:26:49.820Z,5.05
2023-04-09T15:29:21.462Z,5.82
2023-04-09T15:31:53.345Z,6.55
2023-04-09T15:34:26.125Z,6.18
2023-04-09T15:36:57.702Z,5.10
2023-04-09T15:39:29.247Z,5.20
2023-04-09T15:42:01.826Z,5.88
2023-04-09T15:44:33.341Z,6.35
2023-04-09T15:47:04.835Z,6.78
2023-04-09T15:49:36.872Z,6.10
2023-04-09T15:52:08.468Z,5.72
2023-04-09T15:54:39.963Z,6.40
2023-04-09T15:57:11.734Z,6.22
2023-04-09T16:02:14.866Z,5.40
2023-04-09T16:07:17.944Z,5.35
2023-04-09T16:12:21.259Z,4.68
2023-04-09T16:17:24.937Z,5.97
2023-04-09T16:19:56.534Z,5.47
2023-04-09T16:22:28.944Z,6.10
2023-04-09T16:25:00.498Z,5.63
2023-04-09T16:27:32.108Z,6.00
2023-04-09T16:30:04.164Z,5.15
2023-04-09T16:32:35.845Z,5.88
2023-04-09T16:35:07.683Z,5.65
2023-04-09T16:37:39.198Z,5.43
2023-04-09T16:40:10.833Z,5.07
2023-04-09T16:45:13.757Z,5.13
2023-04-09T16:47:49.651Z,4.97
2023-04-09T16:50:22.831Z,4.70
2023-04-09T16:52:54.331Z,4.95
2023-04-09T16:55:26.024Z,5.13
2023-04-09T16:57:57.533Z,5.13
2023-04-09T17:00:29.156Z,5.28
2023-04-09T17:03:00.900Z,4.68
2023-04-09T17:05:32.720Z,5.72
2023-04-09T17:08:05.973Z,5.45
2023-04-09T17:10:37.500Z,6.28
2023-04-09T17:13:09.198Z,5.00
2023-04-09T17:15:41.438Z,4.93
2023-04-09T17:18:12.887Z,4.93
2023-04-09T17:20:44.373Z,4.80
2023-04-09T17:23:16.113Z,6.68
2023-04-09T17:25:48.498Z,6.57
2023-04-09T17:28:20.089Z,5.20
2023-04-09T17:30:51.980Z,5.07
2023-04-09T17:33:23.473Z,5.15
2023-04-09T17:35:55.137Z,4.90
2023-04-09T17:38:26.990Z,5.05
2023-04-09T17:40:58.604Z,4.95
2023-04-09T17:43:30.081Z,4.85
2023-04-09T17:46:01.735Z,5.60
2023-04-09T17:48:33.308Z,5.25
2023-04-09T17:51:05.739Z,5.22
2023-04-09T17:53:37.211Z,5.20
2023-04-09T17:56:09.862Z,4.30
2023-04-09T17:58:41.364Z,4.43
2023-04-09T18:01:13.716Z,4.93
2023-04-09T18:03:48.381Z,4.95
2023-04-09T18:06:20.078Z,4.80
2023-04-09T18:08:52.432Z,5.43
2023-04-09T18:11:24.502Z,4.75
2023-04-09T18:13:56.234Z,4.90
2023-04-09T18:16:28.303Z,4.68
2023-04-09T18:18:59.895Z,5.00
2023-04-09T18:21:31.840Z,5.63
2023-04-09T18:24:04.154Z,5.07
2023-04-09T18:31:40.261Z,6.43
2023-04-09T18:34:11.791Z,6.90
2023-04-09T18:36:43.367Z,6.83
2023-04-09T18:39:15.197Z,7.03
2023-04-09T18:41:47.077Z,6.35
2023-04-09T18:44:18.797Z,7.20
2023-04-09T18:46:50.496Z,6.97
2023-04-09T18:49:21.997Z,6.93
2023-04-09T18:51:53.466Z,7.33
2023-04-09T18:54:26.174Z,7.70
2023-04-09T18:59:30.010Z,7.00
2023-04-09T19:02:05.863Z,6.93
2023-04-09T19:04:40.041Z,6.50
2023-04-09T19:07:11.844Z,6.28
2023-04-09T19:09:44.484Z,6.60
2023-04-09T19:12:16.533Z,6.93
2023-04-09T19:14:48.097Z,6.65
2023-04-09T19:17:19.906Z,6.68
2023-04-09T19:19:51.542Z,6.55
2023-04-09T19:22:23.112Z,6.07
2023-04-09T19:24:54.744Z,6.80
2023-04-09T19:27:26.622Z,6.60
2023-04-09T19:30:02.299Z,6.30
2023-04-09T19:32:34.147Z,6.05
2023-04-09T19:35:07.096Z,6.32
2023-04-09T19:37:39.769Z,7.35
2023-04-09T19:40:11.531Z,7.10
2023-04-09T19:42:44.749Z,8.70
2023-04-09T19:45:16.810Z,9.23
2023-04-09T19:47:48.398Z,9.05
2023-04-09T19:50:19.910Z,8.02
2023-04-09T19:52:52.292Z,7.50
2023-04-09T19:57:56.657Z,6.32
2023-04-09T20:00:28.832Z,6.65
2023-04-09T20:03:00.604Z,7.72
2023-04-09T20:05:32.728Z,9.13
2023-04-09T20:08:04.583Z,15.13
2023-04-09T20:10:42.780Z,14.40
2023-04-09T20:13:14.364Z,9.65
2023-04-09T20:15:45.944Z,7.65
2023-04-09T20:18:17.457Z,7.93
2023-04-09T20:20:50.566Z,8.43
2023-04-09T20:23:22.214Z,11.13
2023-04-09T20:25:54.994Z,8.25
2023-04-09T20:28:27.722Z,8.50
2023-04-09T20:31:02.987Z,8.68
2023-04-09T20:33:34.642Z,7.15
2023-04-09T20:36:16.946Z,7.10
2023-04-09T20:38:48.599Z,7.00
2023-04-09T20:41:20.218Z,7.10
2023-04-09T20:43:51.720Z,6.13
2023-04-09T20:46:23.241Z,6.30
2023-04-09T20:48:55.714Z,6.57
2023-04-09T20:51:28.212Z,6.85
2023-04-09T20:56:32.037Z,7.32
2023-04-09T20:59:03.881Z,7.03
2023-04-09T21:01:35.844Z,6.47
2023-04-09T21:04:07.639Z,7.03
2023-04-09T21:06:40.300Z,6.22
2023-04-09T21:09:11.874Z,6.28
2023-04-09T21:11:43.367Z,6.53
2023-04-09T21:14:14.849Z,7.03
2023-04-09T21:16:46.477Z,6.30
2023-04-09T21:19:18.264Z,7.22
2023-04-09T21:21:49.962Z,7.10
2023-04-09T21:24:21.522Z,7.18
2023-04-09T21:26:53.029Z,7.30
2023-04-09T21:29:24.594Z,8.43
2023-04-09T21:31:56.258Z,7.33
2023-04-09T21:34:27.802Z,8.18
2023-04-09T21:37:01.983Z,8.10
2023-04-09T21:39:33.572Z,8.15
2023-04-09T21:42:06.357Z,9.52
2023-04-09T21:44:38.950Z,9.38
2023-04-09T21:47:12.023Z,8.55
2023-04-09T21:49:43.669Z,7.93
2023-04-09T21:52:15.245Z,8.20
2023-04-09T21:54:46.882Z,10.70
2023-04-09T21:57:18.977Z,8.45
2023-04-09T21:59:50.749Z,7.03
2023-04-09T22:02:22.413Z,7.38
2023-04-09T22:04:54.054Z,7.65
2023-04-09T22:07:26.146Z,7.40
2023-04-09T22:09:58.226Z,7.18
2023-04-09T22:12:29.775Z,5.88
2023-04-09T22:15:01.470Z,7.10
2023-04-09T22:17:34.369Z,7.15
2023-04-09T22:20:07.004Z,7.22
2023-04-09T22:22:38.587Z,8.07
2023-04-09T22:25:11.677Z,9.52
2023-04-09T22:27:43.833Z,9.90
2023-04-09T22:30:15.827Z,10.40
2023-04-09T22:32:47.679Z,9.95
2023-04-09T22:35:19.381Z,10.50
2023-04-09T22:37:50.947Z,7.78
2023-04-09T22:40:22.444Z,7.50
2023-04-09T22:42:53.890Z,8.10
2023-04-09T22:45:27.792Z,7.37
2023-04-09T22:47:59.410Z,6.20
2023-04-09T22:50:31.008Z,5.97
2023-04-09T22:53:02.591Z,5.43
2023-04-09T22:55:34.096Z,6.00
2023-04-09T22:58:05.576Z,6.03
2023-04-09T23:00:39.762Z,5.33
2023-04-09T23:03:11.462Z,6.07
2023-04-09T23:05:43.818Z,5.60
2023-04-09T23:08:15.350Z,6.28
2023-04-09T23:10:46.975Z,6.82
2023-04-09T23:13:18.495Z,5.72
2023-04-09T23:15:50.026Z,6.07
2023-04-09T23:18:22.918Z,6.07
2023-04-09T23:20:54.490Z,6.40
2023-04-09T23:23:25.981Z,5.88
2023-04-09T23:25:57.528Z,5.43
2023-04-09T23:28:29.467Z,5.65
2023-04-09T23:31:01.206Z,5.40
2023-04-09T23:33:32.822Z,6.00
2023-04-09T23:36:04.655Z,5.50
2023-04-09T23:38:36.258Z,5.50
2023-04-09T23:41:07.825Z,5.70
2023-04-09T23:43:39.551Z,6.00
2023-04-09T23:46:11.194Z,5.68
2023-04-09T23:48:42.715Z,6.07
2023-04-09T23:51:20.558Z,5.20
2023-04-09T23:53:52.346Z,5.68
2023-04-09T23:56:25.067Z,5.95
2023-04-09T23:58:56.788Z,5.70
